Time;durP1;ratioP1;P1;durP2;ratioP2;P2;SDS_P1;SDS_P2;PMS_P1;PMS_P2;Temp;Humidity;BMP_temperature;BMP_pressure;BME280_temperature;BME280_humidity;BME280_pressure;Samples;Min_cycle;Max_cycle;Signal;HPM_P1;HPM_P2
2021/10/04 00:02:02;;;;;;;5.35;2.10;;;;;;;11.77;62.63;99083.53;4988270;28;20050;-44
2021/10/04 00:04:29;;;;;;;6.20;1.63;;;;;;;11.75;62.36;99086.16;4988899;28;20054;-44
2021/10/04 00:06:56;;;;;;;4.88;1.95;;;;;;;11.72;62.45;99083.63;4988143;28;20108;-45
2021/10/04 00:09:24;;;;;;;5.18;1.95;;;;;;;11.71;62.52;99087.13;4987875;28;21151;-44
2021/10/04 00:11:51;;;;;;;2.67;1.48;;;;;;;11.71;62.68;99094.91;4990030;28;20178;-43
2021/10/04 00:14:20;;;;;;;3.33;1.20;;;;;;;11.69;62.16;99079.38;4986224;28;20054;-45
2021/10/04 00:16:49;;;;;;;3.40;1.17;;;;;;;11.68;61.49;99084.59;4990029;28;20081;-47
2021/10/04 00:19:16;;;;;;;4.07;1.85;;;;;;;11.66;62.45;99083.78;4987159;28;20482;-45
2021/10/04 00:21:43;;;;;;;6.43;1.80;;;;;;;11.67;61.58;99095.88;4989516;28;20075;-44
2021/10/04 00:24:10;;;;;;;2.58;1.00;;;;;;;11.65;62.34;99092.47;4987046;28;20104;-43
2021/10/04 00:26:37;;;;;;;4.78;1.67;;;;;;;11.64;61.54;99095.94;4988763;28;20062;-44
2021/10/04 00:29:04;;;;;;;2.65;1.35;;;;;;;11.64;61.43;99096.78;4985530;28;20106;-45
2021/10/04 00:31:31;;;;;;;3.97;1.35;;;;;;;11.63;61.71;99100.28;4987781;28;20050;-44
2021/10/04 00:33:58;;;;;;;4.80;1.90;;;;;;;11.62;61.89;99102.91;4986165;28;20125;-44
2021/10/04 00:36:25;;;;;;;3.70;1.67;;;;;;;11.61;62.18;99102.03;4985533;28;20050;-44
2021/10/04 00:38:52;;;;;;;5.28;1.70;;;;;;;11.60;62.27;99110.72;4988460;28;20054;-47
2021/10/04 00:41:18;;;;;;;6.70;2.28;;;;;;;11.60;62.53;99102.06;4985892;28;20454;-44
2021/10/04 00:43:45;;;;;;;2.28;0.80;;;;;;;11.59;61.34;99113.34;4990686;28;20435;-44
2021/10/04 00:46:12;;;;;;;5.55;1.25;;;;;;;11.56;61.88;99116.88;4986845;28;20553;-43
2021/10/04 00:48:39;;;;;;;5.13;1.23;;;;;;;11.54;62.49;99122.09;4988406;28;20047;-44
2021/10/04 00:51:05;;;;;;;5.93;1.13;;;;;;;11.53;61.72;99109.16;4988726;28;20046;-43
2021/10/04 00:53:32;;;;;;;4.95;1.65;;;;;;;11.51;61.46;99119.53;4988183;28;20050;-44
2021/10/04 00:55:59;;;;;;;7.50;1.67;;;;;;;11.51;62.30;99114.34;4987524;28;20081;-44
2021/10/04 00:58:26;;;;;;;1.52;1.23;;;;;;;11.49;61.80;99113.56;4986035;28;20065;-43
2021/10/04 01:00:53;;;;;;;3.42;1.80;;;;;;;11.47;61.64;99123.09;4986625;28;20058;-44
2021/10/04 01:03:20;;;;;;;6.00;2.17;;;;;;;11.46;61.70;99121.41;4985502;28;20046;-44
2021/10/04 01:05:46;;;;;;;4.38;0.98;;;;;;;11.45;61.94;99122.25;4987459;28;20433;-44
2021/10/04 01:08:13;;;;;;;3.30;1.63;;;;;;;11.45;61.94;99127.44;4985312;28;20050;-45
2021/10/04 01:10:40;;;;;;;5.18;2.20;;;;;;;11.45;62.54;99132.63;4985417;28;20471;-44
2021/10/04 01:13:06;;;;;;;7.88;1.95;;;;;;;11.42;62.16;99135.31;4987534;28;20077;-45
2021/10/04 01:15:33;;;;;;;5.15;1.70;;;;;;;11.43;62.05;99137.00;4983862;28;20550;-43
2021/10/04 01:18:00;;;;;;;3.30;1.85;;;;;;;11.43;62.35;99139.59;4984832;28;20491;-43
2021/10/04 01:20:28;;;;;;;3.00;1.08;;;;;;;11.40;61.80;99132.75;4986125;28;20062;-44
2021/10/04 01:22:55;;;;;;;5.00;2.13;;;;;;;11.40;61.78;99134.47;4986804;28;20069;-43
2021/10/04 01:25:22;;;;;;;3.30;1.30;;;;;;;11.40;62.79;99139.66;4984422;28;20057;-43
2021/10/04 01:27:50;;;;;;;4.00;1.17;;;;;;;11.39;62.11;99137.97;4986361;28;20106;-45
2021/10/04 01:30:21;;;;;;;3.80;1.80;;;;;;;11.36;62.68;99143.22;4985830;28;20205;-45
2021/10/04 01:32:49;;;;;;;5.13;1.52;;;;;;;11.36;62.80;99143.22;4984632;28;20046;-44
2021/10/04 01:35:16;;;;;;;5.38;1.40;;;;;;;11.35;62.45;99144.09;4983328;28;20051;-45
2021/10/04 01:37:43;;;;;;;3.58;1.48;;;;;;;11.34;62.79;99138.06;4985261;28;20059;-45
2021/10/04 01:40:12;;;;;;;4.28;1.23;;;;;;;11.34;62.49;99139.81;4986780;28;20195;-44
2021/10/04 01:42:40;;;;;;;4.88;1.73;;;;;;;11.31;62.63;99136.38;4985010;28;20098;-44
2021/10/04 01:45:13;;;;;;;2.85;1.73;;;;;;;11.30;62.37;99136.41;4987323;28;20101;-44
2021/10/04 01:47:40;;;;;;;3.92;1.75;;;;;;;11.30;62.69;99139.00;4983494;28;20542;-43
2021/10/04 01:50:08;;;;;;;3.53;1.45;;;;;;;11.28;62.34;99135.59;4985312;28;20104;-44
2021/10/04 01:52:35;;;;;;;3.58;1.48;;;;;;;11.28;61.98;99131.25;4986748;28;20526;-43
2021/10/04 01:55:03;;;;;;;2.13;1.25;;;;;;;11.26;62.48;99138.22;4985741;28;20066;-42
2021/10/04 01:57:30;;;;;;;2.97;1.25;;;;;;;11.25;62.10;99143.44;4985506;28;20065;-43
2021/10/04 02:00:01;;;;;;;2.25;1.20;;;;;;;11.24;62.93;99133.94;4985284;28;20058;-45
2021/10/04 02:02:29;;;;;;;3.60;1.27;;;;;;;11.21;62.30;99129.66;4986652;28;20105;-45
2021/10/04 02:04:56;;;;;;;2.60;1.60;;;;;;;11.21;62.79;99134.84;4986243;28;20050;-42
2021/10/04 02:07:22;;;;;;;3.25;1.63;;;;;;;11.21;63.08;99129.66;4985976;28;20109;-43
2021/10/04 02:09:49;;;;;;;3.28;1.90;;;;;;;11.20;62.92;99133.16;4987549;28;20050;-43
2021/10/04 02:12:16;;;;;;;3.90;1.33;;;;;;;11.18;62.64;99124.56;4987098;28;20097;-43
2021/10/04 02:14:43;;;;;;;4.05;2.42;;;;;;;11.18;62.92;99109.00;4988167;28;20104;-44
2021/10/04 02:17:09;;;;;;;1.65;1.30;;;;;;;11.18;62.57;99119.38;4985747;28;20121;-43
2021/10/04 02:19:36;;;;;;;3.60;1.50;;;;;;;11.17;62.96;99102.09;4987480;28;20111;-43
2021/10/04 02:22:04;;;;;;;3.15;0.73;;;;;;;11.16;62.41;99110.78;4985406;28;20425;-44
2021/10/04 02:24:30;;;;;;;4.80;1.95;;;;;;;11.15;62.23;99119.44;4987523;28;20058;-43
2021/10/04 02:26:57;;;;;;;5.60;1.80;;;;;;;11.14;62.60;99117.72;4986110;28;22245;-43
2021/10/04 02:29:23;;;;;;;4.55;1.98;;;;;;;11.13;62.59;99116.88;4985933;28;20052;-46
2021/10/04 02:31:50;;;;;;;4.72;1.73;;;;;;;11.12;62.55;99111.72;4987677;28;20058;-45
2021/10/04 02:34:17;;;;;;;4.32;1.23;;;;;;;11.11;63.06;99117.78;4983958;28;20046;-43
2021/10/04 02:36:43;;;;;;;5.13;1.48;;;;;;;11.10;62.52;99116.06;4986936;28;20113;-44
2021/10/04 02:39:10;;;;;;;3.70;1.42;;;;;;;11.10;62.31;99126.44;4985076;28;20108;-43
2021/10/04 02:41:37;;;;;;;3.25;1.08;;;;;;;11.09;63.23;99120.41;4987594;28;20058;-44
2021/10/04 02:44:04;;;;;;;3.88;1.27;;;;;;;11.10;63.50;99116.06;4984967;28;20054;-43
2021/10/04 02:46:31;;;;;;;6.45;1.83;;;;;;;11.10;63.05;99122.13;4984417;28;20486;-45
2021/10/04 02:48:57;;;;;;;2.70;1.48;;;;;;;11.09;62.85;99122.13;4986831;28;20050;-44
2021/10/04 02:51:24;;;;;;;7.93;1.65;;;;;;;11.09;62.79;99114.38;4985876;28;20105;-44
2021/10/04 02:53:51;;;;;;;3.47;1.05;;;;;;;11.08;62.83;99123.03;4987464;28;20050;-43
2021/10/04 02:56:17;;;;;;;5.38;2.10;;;;;;;11.07;62.50;99126.50;4986214;28;20099;-44
2021/10/04 02:58:44;;;;;;;5.00;1.73;;;;;;;11.07;63.39;99131.69;4983843;28;20051;-43
2021/10/04 03:01:10;;;;;;;6.15;1.85;;;;;;;11.06;63.08;99125.66;4980589;28;20101;-43
2021/10/04 03:03:37;;;;;;;4.82;1.23;;;;;;;11.05;63.03;99129.97;4984325;28;20112;-43
2021/10/04 03:06:04;;;;;;;8.02;1.40;;;;;;;11.06;62.24;99125.66;4984170;28;20624;-44
2021/10/04 03:08:31;;;;;;;3.60;1.30;;;;;;;11.05;62.49;99124.78;4986278;28;20046;-44
2021/10/04 03:10:57;;;;;;;3.17;1.58;;;;;;;11.05;62.19;99129.97;4986331;28;20556;-43
2021/10/04 03:13:24;;;;;;;3.83;1.40;;;;;;;11.04;62.37;99128.28;4988469;28;20050;-45
2021/10/04 03:15:51;;;;;;;5.15;1.20;;;;;;;11.03;62.54;99131.75;4990056;28;20046;-44
2021/10/04 03:18:17;;;;;;;3.53;1.58;;;;;;;11.03;62.36;99126.56;4988551;28;20054;-43
2021/10/04 03:20:44;;;;;;;2.90;1.20;;;;;;;11.02;62.28;99119.66;4991090;28;20050;-43
2021/10/04 03:23:10;;;;;;;2.78;1.98;;;;;;;11.02;62.92;99126.59;4988835;28;20099;-42
2021/10/04 03:25:37;;;;;;;4.05;1.70;;;;;;;11.01;62.55;99122.31;4989765;28;20565;-43
2021/10/04 03:28:05;;;;;;;2.67;1.23;;;;;;;10.99;62.24;99124.91;4988734;28;20634;-43
2021/10/04 03:30:33;;;;;;;4.90;0.85;;;;;;;10.98;62.27;99123.19;4990017;28;20434;-43
2021/10/04 03:33:02;;;;;;;3.00;1.73;;;;;;;10.98;62.69;99133.56;4989076;28;20069;-45
2021/10/04 03:35:28;;;;;;;4.22;1.77;;;;;;;10.98;62.70;99133.56;4987657;28;20849;-43
2021/10/04 03:37:55;;;;;;;2.58;1.05;;;;;;;10.97;62.67;99126.69;4988266;28;20534;-43
2021/10/04 03:40:22;;;;;;;2.25;1.33;;;;;;;10.95;62.29;99133.66;4988291;28;20050;-43
2021/10/04 03:42:49;;;;;;;5.18;2.13;;;;;;;10.93;62.30;99135.41;4988247;28;20545;-45
2021/10/04 03:45:16;;;;;;;3.28;1.35;;;;;;;10.91;62.61;99138.00;4987018;28;20046;-43
2021/10/04 03:47:43;;;;;;;5.22;1.80;;;;;;;10.93;62.76;99150.94;4986487;28;20088;-43
2021/10/04 03:50:11;;;;;;;2.08;1.55;;;;;;;10.92;62.91;99144.06;5016542;28;20066;-43
2021/10/04 03:52:39;;;;;;;2.65;1.40;;;;;;;10.92;62.77;99144.88;4987032;28;20058;-43
2021/10/04 03:55:08;;;;;;;2.92;1.85;;;;;;;10.90;62.91;99143.22;4991223;28;20541;-45
2021/10/04 03:57:37;;;;;;;3.97;1.80;;;;;;;10.90;62.68;99140.63;4984993;28;20100;-44
2021/10/04 04:00:07;;;;;;;3.72;1.58;;;;;;;10.89;62.83;99141.53;4989001;28;20553;-43
2021/10/04 04:02:33;;;;;;;4.68;1.50;;;;;;;10.88;62.62;99143.25;4985646;28;20085;-45
2021/10/04 04:05:00;;;;;;;8.93;1.67;;;;;;;10.87;62.74;99141.53;4985578;28;20971;-43
2021/10/04 04:07:27;;;;;;;6.38;1.67;;;;;;;10.85;62.72;99134.69;4987499;28;20568;-43
2021/10/04 04:09:53;;;;;;;4.82;1.35;;;;;;;10.84;61.82;99141.59;4988535;28;20054;-43
2021/10/04 04:12:20;;;;;;;1.65;0.93;;;;;;;10.84;62.36;99140.75;4988123;28;20495;-44
2021/10/04 04:14:47;;;;;;;5.13;1.70;;;;;;;10.84;62.32;99138.16;4987126;28;20054;-43
2021/10/04 04:17:13;;;;;;;2.60;0.55;;;;;;;10.82;63.17;99134.75;4988493;28;21963;-43
2021/10/04 04:19:40;;;;;;;3.42;1.25;;;;;;;10.80;62.73;99145.13;4986977;28;20046;-43
2021/10/04 04:22:06;;;;;;;4.35;1.67;;;;;;;10.79;63.08;99149.47;4988047;28;20101;-43
2021/10/04 04:24:33;;;;;;;6.10;1.33;;;;;;;10.77;63.29;99140.84;4988361;28;20074;-43
2021/10/04 04:27:04;;;;;;;6.20;1.50;;;;;;;10.77;63.50;99140.84;4988335;28;20467;-44
2021/10/04 04:29:31;;;;;;;6.72;1.85;;;;;;;10.76;62.87;99144.34;4987955;28;20050;-45
2021/10/04 04:31:58;;;;;;;2.72;1.42;;;;;;;10.78;63.11;99137.38;4986896;28;20042;-42
2021/10/04 04:34:24;;;;;;;4.03;0.75;;;;;;;10.79;63.23;99143.44;4989329;28;20411;-43
2021/10/04 04:36:51;;;;;;;2.90;1.00;;;;;;;10.78;63.25;99145.16;4987407;28;20117;-44
2021/10/04 04:39:17;;;;;;;2.33;1.25;;;;;;;10.80;62.97;99145.13;4987958;28;20861;-43
2021/10/04 04:41:44;;;;;;;5.05;1.90;;;;;;;10.82;63.57;99145.97;4989656;28;20439;-43
2021/10/04 04:44:11;;;;;;;4.47;1.67;;;;;;;10.83;63.21;99150.25;4986607;28;20046;-46
2021/10/04 04:46:37;;;;;;;4.63;1.70;;;;;;;10.84;63.17;99151.97;4986898;28;20108;-45
2021/10/04 04:49:04;;;;;;;3.80;1.85;;;;;;;10.84;62.85;99149.38;4987874;28;20105;-43
2021/10/04 04:51:30;;;;;;;2.45;1.33;;;;;;;10.87;63.23;99153.63;4986973;28;20510;-44
2021/10/04 04:53:57;;;;;;;5.10;1.30;;;;;;;10.88;62.96;99155.38;4986577;28;20050;-44
2021/10/04 04:56:24;;;;;;;2.85;1.55;;;;;;;10.89;63.16;99154.47;4986527;28;20057;-43
2021/10/04 04:58:50;;;;;;;3.53;1.15;;;;;;;10.89;63.41;99157.06;4987294;28;20046;-43
2021/10/04 05:01:17;;;;;;;4.28;1.33;;;;;;;10.90;64.02;99156.16;4987071;28;20097;-43
2021/10/04 05:03:44;;;;;;;3.35;2.00;;;;;;;10.92;63.81;99162.19;4987654;28;20069;-44
2021/10/04 05:06:11;;;;;;;2.30;1.27;;;;;;;10.94;63.71;99163.00;4987302;28;20141;-44
2021/10/04 05:08:38;;;;;;;6.28;1.65;;;;;;;10.95;63.32;99163.88;4988677;28;20458;-43
2021/10/04 05:11:05;;;;;;;3.47;1.42;;;;;;;10.96;63.62;99161.25;4983939;28;20054;-43
2021/10/04 05:13:32;;;;;;;3.63;2.15;;;;;;;10.96;63.72;99161.25;4987949;28;20054;-44
2021/10/04 05:15:58;;;;;;;5.40;1.27;;;;;;;10.98;63.50;99162.06;4987279;28;20108;-43
2021/10/04 05:18:25;;;;;;;2.70;1.00;;;;;;;10.98;63.84;99159.47;4986438;28;20058;-43
2021/10/04 05:20:52;;;;;;;3.83;1.83;;;;;;;10.98;63.43;99149.09;4988468;28;20539;-43
2021/10/04 05:23:18;;;;;;;6.75;1.80;;;;;;;11.00;63.51;99147.34;4986132;28;20128;-43
2021/10/04 05:25:45;;;;;;;1.90;1.48;;;;;;;11.00;63.55;99162.91;4985858;28;20499;-43
2021/10/04 05:28:12;;;;;;;5.68;1.60;;;;;;;11.01;63.54;99162.00;4986961;28;20092;-43
2021/10/04 05:30:39;;;;;;;3.72;1.55;;;;;;;11.01;63.78;99149.06;4984727;28;21638;-43
2021/10/04 05:33:06;;;;;;;4.78;1.80;;;;;;;11.03;64.01;99155.06;4988390;28;20101;-43
2021/10/04 05:35:32;;;;;;;2.50;1.63;;;;;;;11.04;63.77;99154.19;4986858;28;20046;-44
2021/10/04 05:37:59;;;;;;;5.65;1.55;;;;;;;11.04;63.55;99153.31;4984452;28;20046;-43
2021/10/04 05:40:26;;;;;;;3.63;1.83;;;;;;;11.03;63.76;99147.31;4984926;28;20190;-43
2021/10/04 05:42:52;;;;;;;2.88;1.50;;;;;;;11.03;63.22;99142.13;4986644;28;20113;-43
2021/10/04 05:45:19;;;;;;;1.45;0.63;;;;;;;11.03;63.76;99147.31;4988314;28;20100;-44
2021/10/04 05:47:45;;;;;;;3.22;1.35;;;;;;;11.03;63.54;99147.31;4984679;28;20047;-43
2021/10/04 05:50:13;;;;;;;2.15;0.98;;;;;;;11.03;63.89;99152.47;4987434;28;20042;-43
2021/10/04 05:52:40;;;;;;;1.77;1.23;;;;;;;11.04;63.27;99159.38;4986740;28;20050;-47
2021/10/04 05:55:08;;;;;;;4.07;1.50;;;;;;;11.04;63.22;99155.91;4988455;28;20085;-45
2021/10/04 05:57:35;;;;;;;3.65;1.98;;;;;;;11.04;63.71;99154.19;4984430;28;20051;-44
2021/10/04 06:00:05;;;;;;;1.83;1.15;;;;;;;11.03;63.74;99157.66;4987136;28;20054;-44
2021/10/04 06:02:32;;;;;;;1.65;1.38;;;;;;;11.03;63.36;99157.66;4984647;28;20046;-45
2021/10/04 06:04:59;;;;;;;2.90;1.25;;;;;;;11.03;63.47;99162.84;4986774;28;20069;-43
2021/10/04 06:07:25;;;;;;;2.83;1.15;;;;;;;11.03;63.05;99164.56;4985803;28;20065;-43
2021/10/04 06:09:52;;;;;;;3.53;1.27;;;;;;;11.03;63.67;99168.03;4984758;28;20112;-44
2021/10/04 06:12:24;;;;;;;1.45;1.35;;;;;;;11.04;63.41;99164.53;4987481;28;20054;-45
2021/10/04 06:14:51;;;;;;;3.78;0.90;;;;;;;11.04;63.58;99174.91;4984313;28;20484;-43
2021/10/04 06:17:17;;;;;;;4.18;1.48;;;;;;;11.05;63.71;99166.25;4986792;28;20112;-43
2021/10/04 06:19:44;;;;;;;1.75;1.33;;;;;;;11.07;63.88;99162.78;4982893;28;20112;-43
2021/10/04 06:22:10;;;;;;;3.30;1.98;;;;;;;11.07;63.33;99175.75;4985700;28;20046;-43
2021/10/04 06:24:37;;;;;;;1.73;1.30;;;;;;;11.05;63.25;99171.44;4987318;28;20066;-45
2021/10/04 06:27:03;;;;;;;3.00;1.35;;;;;;;11.07;63.49;99173.16;4986093;28;20053;-43
2021/10/04 06:29:30;;;;;;;2.70;0.60;;;;;;;11.05;63.51;99174.03;4985284;28;20436;-43
2021/10/04 06:31:57;;;;;;;1.58;1.08;;;;;;;11.05;63.76;99175.78;4986946;28;20046;-44
2021/10/04 06:34:23;;;;;;;4.72;1.38;;;;;;;11.05;62.54;99173.19;4985873;28;20043;-45
2021/10/04 06:36:50;;;;;;;2.13;1.92;;;;;;;11.05;63.42;99176.63;4980150;28;20062;-43
2021/10/04 06:39:16;;;;;;;1.23;0.95;;;;;;;11.04;62.93;99169.72;4981254;28;20051;-43
2021/10/04 06:41:43;;;;;;;1.52;1.25;;;;;;;11.03;62.91;99178.41;4985049;28;21493;-43
2021/10/04 06:44:10;;;;;;;1.90;1.80;;;;;;;11.03;63.33;99175.81;4983415;28;20576;-44
2021/10/04 06:46:57;;;;;;;1.52;1.15;;;;;;;11.03;63.21;99175.81;4987109;28;20077;-43
2021/10/04 06:49:27;;;;;;;3.85;2.00;;;;;;;11.03;63.36;99177.53;4987451;28;20050;-43
2021/10/04 06:51:54;;;;;;;1.38;1.27;;;;;;;11.01;63.13;99172.38;4988123;28;20058;-44
2021/10/04 06:54:20;;;;;;;3.03;1.50;;;;;;;11.02;63.56;99186.19;4984980;28;20050;-43
2021/10/04 06:56:47;;;;;;;3.42;1.95;;;;;;;11.02;63.39;99181.00;4987526;28;20434;-44
2021/10/04 06:59:13;;;;;;;1.63;1.25;;;;;;;11.01;63.17;99184.50;4985883;28;20043;-42
2021/10/04 07:01:40;;;;;;;2.88;1.08;;;;;;;11.00;62.85;99186.22;4984439;28;20108;-43
2021/10/04 07:04:07;;;;;;;4.82;1.10;;;;;;;10.99;63.59;99192.28;4985220;28;20146;-46
2021/10/04 07:06:34;;;;;;;3.35;2.70;;;;;;;10.98;63.22;99180.19;4985795;28;20061;-44
2021/10/04 07:09:05;;;;;;;1.65;1.48;;;;;;;10.96;63.12;99181.97;4987206;28;20145;-46
2021/10/04 07:11:32;;;;;;;2.63;1.75;;;;;;;10.97;63.33;99186.28;4987591;28;20117;-43
2021/10/04 07:13:58;;;;;;;1.42;1.08;;;;;;;10.97;63.33;99183.69;4984866;28;20054;-43
2021/10/04 07:16:25;;;;;;;2.75;1.05;;;;;;;10.97;63.64;99188.84;4988163;28;20050;-43
2021/10/04 07:18:52;;;;;;;1.58;1.48;;;;;;;10.99;63.65;99189.69;4986393;28;20082;-43
2021/10/04 07:21:18;;;;;;;2.63;1.42;;;;;;;10.99;63.26;99189.69;4985675;28;20105;-43
2021/10/04 07:23:45;;;;;;;2.58;1.42;;;;;;;10.98;63.02;99187.97;4986870;28;20509;-46
2021/10/04 07:26:13;;;;;;;2.15;0.65;;;;;;;10.97;63.54;99188.84;4981716;28;20470;-43
2021/10/04 07:28:40;;;;;;;4.57;1.38;;;;;;;10.99;63.71;99194.88;4983806;28;20046;-44
2021/10/04 07:31:08;;;;;;;1.48;0.35;;;;;;;11.02;64.12;99193.97;4985226;28;20388;-44
2021/10/04 07:33:35;;;;;;;2.95;1.42;;;;;;;11.03;63.38;99199.13;4987192;28;20059;-45
2021/10/04 07:36:06;;;;;;;1.90;0.40;;;;;;;11.05;63.41;99201.69;4986131;28;20610;-44
2021/10/04 07:38:34;;;;;;;1.70;0.73;;;;;;;11.08;63.74;99195.59;4988422;28;20610;-45
2021/10/04 07:41:01;;;;;;;1.17;1.15;;;;;;;11.10;63.62;99196.41;4988498;28;20054;-43
2021/10/04 07:43:27;;;;;;;2.30;1.42;;;;;;;11.13;63.72;99199.81;4987168;28;20086;-45
2021/10/04 07:45:54;;;;;;;1.95;0.80;;;;;;;11.19;64.02;99180.69;4990163;28;20092;-43
2021/10/04 07:48:21;;;;;;;4.40;1.35;;;;;;;11.24;63.87;99186.63;4989526;28;20072;-44
2021/10/04 07:50:47;;;;;;;2.25;1.33;;;;;;;11.29;64.41;99189.97;4988893;28;20054;-43
2021/10/04 07:53:14;;;;;;;1.23;1.10;;;;;;;11.34;64.17;99197.69;4982342;28;20105;-44
2021/10/04 07:55:40;;;;;;;1.77;1.23;;;;;;;11.39;64.08;99195.84;4981906;28;20043;-45
2021/10/04 07:58:07;;;;;;;2.08;1.38;;;;;;;11.45;64.96;99192.25;4978935;28;20070;-45
2021/10/04 08:00:34;;;;;;;1.50;1.15;;;;;;;11.50;65.08;99198.25;4986987;28;20054;-44
2021/10/04 08:03:01;;;;;;;2.42;1.75;;;;;;;11.56;64.77;99198.09;4986336;28;20073;-47
2021/10/04 08:05:28;;;;;;;2.55;1.42;;;;;;;11.61;65.03;99194.53;4984939;28;20058;-44
2021/10/04 08:07:55;;;;;;;2.47;1.83;;;;;;;11.67;63.80;99210.00;4986825;28;20046;-44
2021/10/04 08:10:22;;;;;;;2.28;1.50;;;;;;;11.68;63.75;99207.38;4987033;28;20047;-44
2021/10/04 08:12:49;;;;;;;3.53;1.60;;;;;;;11.74;64.21;99221.09;4988283;28;20073;-44
2021/10/04 08:15:15;;;;;;;2.42;1.33;;;;;;;11.78;64.58;99217.53;4987678;28;20105;-43
2021/10/04 08:17:42;;;;;;;1.63;1.52;;;;;;;11.81;63.91;99213.16;4987219;28;20447;-46
2021/10/04 08:20:09;;;;;;;2.75;1.98;;;;;;;11.87;64.68;99216.50;4987237;28;20502;-47
2021/10/04 08:22:38;;;;;;;2.05;1.20;;;;;;;11.90;64.84;99221.63;4985867;28;20128;-45
2021/10/04 08:25:06;;;;;;;1.50;1.40;;;;;;;11.93;63.91;99219.81;4987818;28;20109;-43
2021/10/04 08:27:33;;;;;;;1.52;0.90;;;;;;;11.97;65.04;99223.22;4985905;28;20479;-46
2021/10/04 08:30:00;;;;;;;3.33;1.55;;;;;;;12.02;64.67;99221.34;4987878;28;20105;-47
2021/10/04 08:32:26;;;;;;;2.72;1.55;;;;;;;12.06;64.88;99223.03;4983244;28;20054;-45
2021/10/04 08:34:53;;;;;;;1.35;1.25;;;;;;;12.11;63.51;99229.84;4989060;28;20050;-46
2021/10/04 08:37:22;;;;;;;2.20;2.00;;;;;;;12.14;63.82;99233.25;4986769;28;20126;-45
2021/10/04 08:39:48;;;;;;;2.80;1.50;;;;;;;12.19;64.79;99233.13;4983404;28;20046;-46
2021/10/04 08:42:17;;;;;;;1.92;0.95;;;;;;;12.21;63.63;99236.56;4986287;28;20046;-45
2021/10/04 08:44:43;;;;;;;2.38;1.38;;;;;;;12.22;64.72;99233.06;4985674;28;20054;-46
2021/10/04 08:47:10;;;;;;;2.03;1.50;;;;;;;12.24;64.28;99233.91;4986514;28;21110;-50
2021/10/04 08:49:37;;;;;;;2.25;1.25;;;;;;;12.29;64.59;99249.38;4987356;28;20058;-46
2021/10/04 08:52:04;;;;;;;1.88;1.42;;;;;;;12.32;64.28;99249.28;4985452;28;20042;-45
2021/10/04 08:54:34;;;;;;;4.63;1.27;;;;;;;12.33;63.30;99246.66;4987281;28;20479;-45
2021/10/04 08:57:01;;;;;;;1.60;1.45;;;;;;;12.37;63.87;99241.41;4987446;28;20116;-44
2021/10/04 08:59:27;;;;;;;1.23;1.13;;;;;;;12.40;63.67;99249.13;4988943;28;20654;-48
2021/10/04 09:02:31;;;;;;;1.30;0.70;;;;;;;12.41;63.81;99254.28;4988627;28;20442;-46
2021/10/04 09:05:18;;;;;;;2.92;1.77;;;;;;;12.44;64.78;99255.94;4983556;28;20050;-47
2021/10/04 09:07:47;;;;;;;2.60;0.93;;;;;;;12.49;64.04;99255.84;4988084;28;20178;-47
2021/10/04 09:10:20;;;;;;;2.58;1.75;;;;;;;12.56;64.82;99266.06;4985812;28;20054;-46
2021/10/04 09:12:58;;;;;;;1.52;1.42;;;;;;;12.64;64.13;99271.06;4986376;28;20112;-46
2021/10/04 09:15:39;;;;;;;2.80;1.83;;;;;;;12.71;64.09;99271.78;4984289;28;20054;-44
2021/10/04 09:18:17;;;;;;;2.58;1.27;;;;;;;12.82;64.11;99272.38;4988499;28;20194;-46
2021/10/04 09:21:07;;;;;;;2.47;1.77;;;;;;;12.95;65.19;99265.13;5000158;28;20145;-45
2021/10/04 09:23:47;;;;;;;;;;;;;;;13.10;64.13;99269.06;4983642;28;20510;-45
2021/10/04 09:26:35;;;;;;;2.80;1.55;;;;;;;13.25;64.48;99266.97;4986222;28;19926;-46
2021/10/04 09:29:05;;;;;;;2.80;2.03;;;;;;;13.40;64.26;99259.66;4995175;28;20046;-44
2021/10/04 09:31:35;;;;;;;1.92;1.40;;;;;;;13.60;65.41;99265.19;4986361;28;20109;-45
2021/10/04 09:34:04;;;;;;;;;;;;;;;13.86;64.25;99263.59;4984678;28;20054;-45
2021/10/04 09:36:37;;;;;;;2.13;0.82;;;;;;;14.06;63.65;99259.56;4985681;28;20369;-48
2021/10/04 09:39:26;;;;;;;1.73;0.73;;;;;;;14.33;64.32;99262.22;4988562;28;20459;-47
2021/10/04 09:42:01;;;;;;;1.70;1.52;;;;;;;14.58;64.70;99264.03;4988818;28;20109;-45
2021/10/04 09:44:50;;;;;;;3.88;1.65;;;;;;;14.89;64.37;99270.91;4985741;28;20104;-46
2021/10/04 09:47:21;;;;;;;1.65;1.38;;;;;;;15.12;63.06;99266.66;4985833;28;20054;-48
2021/10/04 09:49:51;;;;;;;1.63;1.42;;;;;;;15.39;62.77;99273.56;4999464;28;20489;-46
2021/10/04 09:52:50;;;;;;;1.45;0.85;;;;;;;15.63;62.29;99277.06;4987686;28;20105;-47
2021/10/04 09:55:21;;;;;;;2.33;1.30;;;;;;;15.87;62.07;99274.47;4981742;28;20046;-48
2021/10/04 09:58:08;;;;;;;2.22;0.80;;;;;;;16.10;61.23;99280.63;4998579;28;20104;-46
2021/10/04 10:00:55;;;;;;;2.10;1.38;;;;;;;16.34;60.69;99277.97;4983320;28;20050;-47
2021/10/04 10:03:24;;;;;;;3.47;1.92;;;;;;;16.59;60.89;99287.47;4982585;28;20839;-47
2021/10/04 10:05:53;;;;;;;3.08;1.67;;;;;;;16.78;60.31;99279.72;4981231;28;20054;-49
2021/10/04 10:08:22;;;;;;;2.50;0.65;;;;;;;17.00;59.91;99277.97;4985248;28;20446;-47
2021/10/04 10:10:51;;;;;;;2.40;1.27;;;;;;;17.17;59.56;99278.16;4996664;28;20054;-47
2021/10/04 10:13:19;;;;;;;3.53;1.52;;;;;;;17.32;59.20;99281.88;4985304;28;20054;-46
2021/10/04 10:16:08;;;;;;;3.20;1.60;;;;;;;17.52;58.85;99276.69;4983440;28;20062;-48
2021/10/04 10:18:42;;;;;;;2.55;1.17;;;;;;;17.67;58.35;99281.22;4987868;28;20185;-47
2021/10/04 10:21:17;;;;;;;2.53;1.80;;;;;;;17.82;58.91;99278.84;5002830;28;20050;-48
2021/10/04 10:23:49;;;;;;;2.30;2.10;;;;;;;17.95;58.10;99277.38;4986657;28;20097;-46
2021/10/04 10:26:46;;;;;;;1.50;1.33;;;;;;;18.06;56.90;99284.75;4986561;28;20046;-49
2021/10/04 10:29:21;;;;;;;3.30;1.45;;;;;;;18.13;57.99;99280.09;4982579;28;20522;-49
2021/10/04 10:32:07;;;;;;;2.97;1.50;;;;;;;18.20;57.04;99284.13;4986458;28;20050;-49
2021/10/04 10:34:47;;;;;;;3.47;1.23;;;;;;;18.23;57.22;99284.00;4984031;28;20499;-51
2021/10/04 10:37:21;;;;;;;1.83;1.48;;;;;;;18.28;57.44;99285.53;4986109;28;20042;-49
2021/10/04 10:40:00;;;;;;;2.65;1.45;;;;;;;18.32;57.45;99290.59;4988152;28;20101;-49
2021/10/04 10:42:31;;;;;;;2.35;1.98;;;;;;;18.35;57.18;99284.34;4982927;28;20078;-50
2021/10/04 10:45:12;;;;;;;1.20;1.02;;;;;;;18.36;56.60;99293.91;4987166;28;20054;-48
2021/10/04 10:47:52;;;;;;;3.35;0.52;;;;;;;18.39;56.28;99288.50;4988143;28;20446;-49
2021/10/04 10:50:30;;;;;;;1.95;1.85;;;;;;;18.40;56.14;99284.97;4985003;28;20058;-48
2021/10/04 10:53:07;;;;;;;3.40;1.40;;;;;;;18.44;56.10;99296.16;4985021;28;20073;-48
2021/10/04 10:55:39;;;;;;;4.20;1.52;;;;;;;18.46;56.15;99289.91;4984708;28;20656;-49
2021/10/04 10:58:12;;;;;;;2.47;2.13;;;;;;;18.47;56.44;99294.22;4982864;28;20502;-48
2021/10/04 11:00:42;;;;;;;2.80;1.88;;;;;;;18.47;55.69;99296.84;4986119;28;20096;-48
2021/10/04 11:03:12;;;;;;;2.47;1.10;;;;;;;18.46;55.95;99289.91;4985345;28;20514;-50
2021/10/04 11:06:03;;;;;;;3.65;1.30;;;;;;;18.44;55.77;99299.63;4986242;28;20058;-49
2021/10/04 11:08:53;;;;;;;5.13;2.20;;;;;;;18.41;55.47;99297.13;4987715;28;20077;-49
2021/10/04 11:11:22;;;;;;;1.98;1.52;;;;;;;18.42;55.90;99287.50;4983769;28;20054;-47
2021/10/04 11:14:07;;;;;;;1.35;1.25;;;;;;;18.39;55.96;99293.75;4987827;28;20050;-46
2021/10/04 11:16:38;;;;;;;3.10;2.15;;;;;;;18.43;55.67;99295.31;4984931;28;20133;-47
2021/10/04 11:19:07;;;;;;;2.38;1.30;;;;;;;18.44;56.06;99286.50;4987355;28;20129;-50
2021/10/04 11:21:43;;;;;;;3.10;1.65;;;;;;;18.41;55.69;99291.88;4986567;28;20081;-44
2021/10/04 11:24:10;;;;;;;2.45;1.67;;;;;;;18.43;56.53;99284.81;4985178;28;20058;-47
2021/10/04 11:26:39;;;;;;;2.22;1.25;;;;;;;18.45;56.73;99282.97;4985923;28;20066;-49
2021/10/04 11:29:10;;;;;;;3.38;2.05;;;;;;;18.45;55.74;99288.22;4984608;28;20510;-49
2021/10/04 11:31:44;;;;;;;4.57;1.75;;;;;;;18.46;56.08;99287.31;4988148;28;20106;-47
2021/10/04 11:34:14;;;;;;;3.90;1.95;;;;;;;18.47;56.07;99286.38;4990057;28;20038;-49
2021/10/04 11:36:45;;;;;;;2.33;1.58;;;;;;;18.47;56.72;99291.63;4989675;28;20053;-45
2021/10/04 11:39:16;;;;;;;3.10;1.35;;;;;;;18.51;55.30;99287.09;4987555;28;20050;-45
2021/10/04 11:41:46;;;;;;;2.90;0.60;;;;;;;18.52;55.45;99293.16;4987018;28;20306;-46
2021/10/04 11:44:18;;;;;;;2.83;1.65;;;;;;;18.53;55.25;99300.09;4989486;28;20438;-45